createdAt,value
2024-05-09T00:00:46.956Z,1.98
2024-05-09T00:03:14.763Z,2.00
2024-05-09T00:05:43.345Z,2.13
2024-05-09T00:08:11.498Z,1.98
2024-05-09T00:10:40.628Z,2.17
2024-05-09T00:13:10.431Z,2.08
2024-05-09T00:15:38.359Z,2.17
2024-05-09T00:18:11.493Z,2.15
2024-05-09T00:20:40.986Z,1.95
2024-05-09T00:23:15.931Z,2.25
2024-05-09T00:25:44.135Z,2.40
2024-05-09T00:28:12.675Z,2.25
2024-05-09T00:30:40.434Z,2.00
2024-05-09T00:33:09.608Z,1.88
2024-05-09T00:35:38.632Z,2.30
2024-05-09T00:38:06.716Z,2.30
2024-05-09T00:40:42.629Z,1.77
2024-05-09T00:43:14.887Z,2.55
2024-05-09T00:45:43.996Z,2.38
2024-05-09T00:48:16.419Z,2.38
2024-05-09T00:50:47.622Z,2.13
2024-05-09T00:53:17.546Z,2.10
2024-05-09T00:55:46.532Z,2.42
2024-05-09T00:58:16.551Z,2.58
2024-05-09T01:00:44.664Z,2.35
2024-05-09T01:03:13.987Z,2.65
2024-05-09T01:05:43.322Z,3.10
2024-05-09T01:08:11.875Z,2.60
2024-05-09T01:10:42.604Z,2.55
2024-05-09T01:13:12.672Z,2.85
2024-05-09T01:15:40.102Z,2.25
2024-05-09T01:18:10.556Z,2.83
2024-05-09T01:20:42.433Z,2.95
2024-05-09T01:23:12.906Z,2.95
2024-05-09T01:25:41.444Z,2.88
2024-05-09T01:28:08.735Z,3.28
2024-05-09T01:30:37.559Z,2.67
2024-05-09T01:33:08.921Z,3.33
2024-05-09T01:35:39.359Z,3.30
2024-05-09T01:38:07.852Z,2.67
2024-05-09T01:40:38.755Z,3.08
2024-05-09T01:43:11.427Z,2.92
2024-05-09T01:45:42.750Z,3.28
2024-05-09T01:48:11.936Z,2.97
2024-05-09T01:50:42.147Z,3.28
2024-05-09T01:53:12.004Z,3.30
2024-05-09T01:55:39.917Z,3.08
2024-05-09T01:58:07.703Z,3.33
2024-05-09T02:00:40.282Z,2.88
2024-05-09T02:03:16.370Z,2.40
2024-05-09T02:05:47.233Z,3.55
2024-05-09T02:08:19.652Z,3.28
2024-05-09T02:10:48.853Z,2.72
2024-05-09T02:13:17.092Z,3.13
2024-05-09T02:15:44.802Z,3.13
2024-05-09T02:18:12.976Z,3.38
2024-05-09T02:20:42.071Z,3.75
2024-05-09T02:23:10.511Z,2.83
2024-05-09T02:25:37.885Z,3.10
2024-05-09T02:28:05.510Z,2.75
2024-05-09T02:30:39.593Z,2.85
2024-05-09T02:33:12.274Z,2.83
2024-05-09T02:35:43.438Z,3.65
2024-05-09T02:38:11.896Z,2.47
2024-05-09T02:40:40.221Z,3.28
2024-05-09T02:43:10.347Z,2.63
2024-05-09T02:45:39.851Z,2.88
2024-05-09T02:48:10.319Z,2.60
2024-05-09T02:50:39.886Z,2.92
2024-05-09T02:53:09.413Z,3.20
2024-05-09T02:55:38.626Z,2.80
2024-05-09T02:58:08.124Z,3.08
2024-05-09T03:00:39.763Z,3.22
2024-05-09T03:03:12.545Z,2.72
2024-05-09T03:05:42.644Z,2.85
2024-05-09T03:08:10.557Z,2.55
2024-05-09T03:10:39.230Z,2.45
2024-05-09T03:13:13.087Z,3.40
2024-05-09T03:15:42.192Z,2.58
2024-05-09T03:18:09.868Z,2.92
2024-05-09T03:20:38.545Z,2.80
2024-05-09T03:23:09.753Z,2.80
2024-05-09T03:25:38.658Z,2.70
2024-05-09T03:28:06.754Z,2.83
2024-05-09T03:30:40.495Z,2.72
2024-05-09T03:33:11.743Z,3.08
2024-05-09T03:35:39.909Z,3.33
2024-05-09T03:38:07.327Z,3.00
2024-05-09T03:40:34.690Z,2.95
2024-05-09T03:43:01.995Z,3.00
2024-05-09T03:45:29.380Z,2.67
2024-05-09T03:47:57.180Z,3.33
2024-05-09T03:50:30.253Z,2.95
2024-05-09T03:53:02.300Z,3.10
2024-05-09T03:55:30.123Z,3.30
2024-05-09T03:57:57.714Z,2.97
2024-05-09T04:00:31.569Z,3.10
2024-05-09T04:03:07.674Z,2.88
2024-05-09T04:05:39.808Z,2.45
2024-05-09T04:08:08.167Z,2.70
2024-05-09T04:10:35.807Z,2.72
2024-05-09T04:13:04.264Z,2.53
2024-05-09T04:15:32.462Z,2.28
2024-05-09T04:18:01.019Z,2.65
2024-05-09T04:20:39.930Z,2.60
2024-05-09T04:23:13.724Z,2.60
2024-05-09T04:25:44.042Z,2.00
2024-05-09T04:28:11.844Z,2.60
2024-05-09T04:30:41.292Z,2.72
2024-05-09T04:33:14.198Z,2.22
2024-05-09T04:35:43.715Z,2.35
2024-05-09T04:38:12.170Z,2.30
2024-05-09T04:40:39.675Z,2.35
2024-05-09T04:43:13.924Z,2.42
2024-05-09T04:45:41.755Z,2.55
2024-05-09T04:48:09.684Z,2.70
2024-05-09T04:50:39.206Z,2.38
2024-05-09T04:53:10.052Z,2.80
2024-05-09T04:55:39.574Z,2.63
2024-05-09T04:58:10.534Z,2.42
2024-05-09T05:00:40.285Z,2.80
2024-05-09T05:03:14.289Z,2.28
2024-05-09T05:05:45.200Z,2.60
2024-05-09T05:08:14.708Z,2.38
2024-05-09T05:10:43.133Z,1.95
2024-05-09T05:13:22.567Z,1.85
2024-05-09T05:15:58.539Z,2.28
2024-05-09T05:18:28.231Z,1.75
2024-05-09T05:20:56.839Z,2.20
2024-05-09T05:23:24.972Z,1.90
2024-05-09T05:25:53.909Z,1.90
2024-05-09T05:28:22.471Z,1.55
2024-05-09T05:30:50.255Z,1.77
2024-05-09T05:33:22.972Z,2.00
2024-05-09T05:35:51.253Z,1.83
2024-05-09T05:38:19.491Z,2.08
2024-05-09T05:40:47.928Z,2.25
2024-05-09T05:43:19.524Z,2.28
2024-05-09T05:45:47.075Z,3.05
2024-05-09T05:48:18.206Z,2.05
2024-05-09T05:50:46.324Z,2.15
2024-05-09T05:53:14.013Z,1.80
2024-05-09T05:55:41.926Z,2.03
2024-05-09T05:58:10.874Z,2.30
2024-05-09T06:00:40.442Z,2.30
2024-05-09T06:03:10.224Z,1.80
2024-05-09T06:05:44.011Z,2.20
2024-05-09T06:08:12.415Z,1.60
2024-05-09T06:10:41.414Z,2.00
2024-05-09T06:13:13.444Z,2.33
2024-05-09T06:15:41.823Z,1.70
2024-05-09T06:18:10.964Z,1.80
2024-05-09T06:20:42.291Z,1.67
2024-05-09T06:23:10.931Z,2.10
2024-05-09T06:25:38.792Z,1.67
2024-05-09T06:28:06.438Z,1.67
2024-05-09T06:30:41.673Z,1.77
2024-05-09T06:33:12.887Z,2.00
2024-05-09T06:35:42.522Z,2.00
2024-05-09T06:38:10.187Z,2.15
2024-05-09T06:40:42.563Z,2.10
2024-05-09T06:43:16.329Z,1.92
2024-05-09T06:45:48.481Z,2.05
2024-05-09T06:48:19.190Z,2.05
2024-05-09T06:50:47.067Z,2.25
2024-05-09T06:53:15.474Z,1.95
2024-05-09T06:55:43.382Z,1.40
2024-05-09T06:58:10.666Z,2.08
2024-05-09T07:00:40.509Z,1.70
2024-05-09T07:03:16.219Z,2.78
2024-05-09T07:05:46.778Z,1.77
2024-05-09T07:08:15.194Z,2.10
2024-05-09T07:10:42.486Z,1.80
2024-05-09T07:13:14.401Z,2.15
2024-05-09T07:15:42.307Z,1.75
2024-05-09T07:18:16.725Z,1.95
2024-05-09T07:20:45.928Z,1.90
2024-05-09T07:23:13.852Z,1.83
2024-05-09T07:25:42.322Z,1.63
2024-05-09T07:28:17.859Z,1.80
2024-05-09T07:30:45.686Z,1.77
2024-05-09T07:33:17.980Z,1.85
2024-05-09T07:35:45.948Z,1.75
2024-05-09T07:38:13.748Z,1.60
2024-05-09T07:40:41.977Z,1.73
2024-05-09T07:43:11.986Z,2.28
2024-05-09T07:45:48.959Z,1.92
2024-05-09T07:52:38.894Z,1.87
2024-05-09T07:53:47.538Z,1.80
2024-05-09T07:56:19.920Z,2.10
2024-05-09T07:58:51.254Z,1.92
2024-05-09T08:01:19.394Z,2.00
2024-05-09T08:03:47.263Z,1.42
2024-05-09T08:06:15.114Z,1.95
2024-05-09T08:08:42.503Z,1.60
2024-05-09T08:11:10.012Z,2.08
2024-05-09T08:13:37.742Z,1.77
2024-05-09T08:16:05.427Z,1.58
2024-05-09T08:18:33.498Z,1.50
2024-05-09T08:21:01.109Z,1.60
2024-05-09T08:23:29.062Z,1.63
2024-05-09T08:25:56.458Z,1.70
2024-05-09T08:28:24.030Z,1.80
2024-05-09T08:30:51.694Z,1.40
2024-05-09T08:33:19.200Z,1.75
2024-05-09T08:35:46.902Z,1.83
2024-05-09T08:38:14.353Z,1.52
2024-05-09T08:40:42.220Z,1.83
2024-05-09T08:43:12.085Z,1.85
2024-05-09T08:45:45.121Z,1.45
2024-05-09T08:48:15.663Z,1.50
2024-05-09T08:50:45.140Z,1.63
2024-05-09T08:53:15.129Z,1.40
2024-05-09T08:55:44.282Z,1.40
2024-05-09T08:58:20.035Z,1.27
2024-05-09T09:00:48.427Z,1.10
2024-05-09T09:03:19.664Z,1.15
2024-05-09T09:06:05.748Z,1.38
2024-05-09T09:08:33.107Z,1.42
2024-05-09T09:11:00.639Z,1.40
2024-05-09T09:13:28.275Z,1.38
2024-05-09T09:15:59.027Z,1.00
2024-05-09T09:18:27.500Z,1.40
2024-05-09T09:20:55.615Z,1.20
2024-05-09T09:23:23.260Z,1.40
2024-05-09T09:25:50.997Z,1.00
2024-05-09T09:28:18.397Z,1.10
2024-05-09T09:30:46.735Z,1.10
2024-05-09T09:33:14.220Z,1.30
2024-05-09T09:35:41.626Z,1.48
2024-05-09T09:38:10.920Z,2.15
2024-05-09T09:40:46.693Z,1.48
2024-05-09T09:43:21.356Z,1.65
2024-05-09T09:45:58.738Z,1.77
2024-05-09T09:48:26.898Z,1.65
2024-05-09T09:50:55.582Z,1.50
2024-05-09T09:53:23.992Z,1.48
2024-05-09T09:55:53.329Z,1.83
2024-05-09T09:58:21.546Z,1.38
2024-05-09T10:00:49.938Z,1.30
2024-05-09T10:03:17.392Z,0.95
2024-05-09T10:05:47.480Z,1.52
2024-05-09T10:08:22.750Z,1.63
2024-05-09T10:10:55.877Z,1.50
2024-05-09T10:13:37.106Z,1.50
2024-05-09T10:16:12.698Z,1.45
2024-05-09T10:18:45.608Z,1.60
2024-05-09T10:21:20.442Z,1.50
2024-05-09T10:23:59.276Z,1.63
2024-05-09T10:26:51.783Z,1.30
2024-05-09T10:29:20.463Z,1.75
2024-05-09T10:31:48.545Z,1.60
2024-05-09T10:34:21.108Z,1.30
2024-05-09T10:37:01.966Z,1.25
2024-05-09T10:39:37.279Z,1.35
2024-05-09T10:42:04.958Z,1.33
2024-05-09T10:44:38.047Z,1.25
2024-05-09T10:47:05.590Z,1.10
2024-05-09T10:49:33.627Z,1.35
2024-05-09T10:52:04.823Z,1.35
2024-05-09T10:54:39.339Z,1.30
2024-05-09T10:57:07.644Z,1.25
2024-05-09T10:59:39.816Z,1.05
2024-05-09T11:02:11.706Z,1.00
2024-05-09T11:04:44.684Z,0.85
2024-05-09T11:07:17.619Z,0.80
2024-05-09T11:09:46.061Z,1.05
2024-05-09T11:12:13.529Z,1.10
2024-05-09T11:14:40.933Z,1.10
2024-05-09T11:17:08.974Z,1.10
2024-05-09T11:19:42.316Z,1.20
2024-05-09T11:22:10.004Z,1.50
2024-05-09T11:24:37.634Z,1.38
2024-05-09T11:27:06.410Z,1.00
2024-05-09T11:29:41.986Z,1.63
2024-05-09T11:32:11.960Z,1.55
2024-05-09T11:34:39.488Z,1.40
2024-05-09T11:37:07.201Z,1.27
2024-05-09T11:39:35.352Z,1.40
2024-05-09T11:42:03.193Z,1.25
2024-05-09T11:44:30.814Z,1.30
2024-05-09T11:46:58.373Z,1.17
2024-05-09T11:49:27.006Z,1.10
2024-05-09T11:51:55.149Z,1.25
2024-05-09T11:54:22.705Z,1.30
2024-05-09T11:56:51.807Z,1.38
2024-05-09T11:59:19.205Z,1.30
2024-05-09T12:01:49.701Z,1.35
2024-05-09T12:04:17.611Z,0.90
2024-05-09T12:06:46.502Z,1.00
2024-05-09T12:09:14.142Z,1.00
2024-05-09T12:11:41.940Z,1.20
2024-05-09T12:14:09.435Z,1.40
2024-05-09T12:16:36.905Z,1.00
2024-05-09T12:19:04.395Z,1.00
2024-05-09T12:21:32.157Z,1.00
2024-05-09T12:23:59.614Z,0.90
2024-05-09T12:26:27.934Z,1.15
2024-05-09T12:28:55.772Z,1.17
2024-05-09T12:31:23.236Z,1.10
2024-05-09T12:33:50.868Z,1.45
2024-05-09T12:36:18.510Z,1.40
2024-05-09T12:38:46.381Z,1.30
2024-05-09T12:41:13.854Z,1.00
2024-05-09T12:43:41.281Z,1.08
2024-05-09T12:46:08.746Z,1.45
2024-05-09T12:48:36.371Z,1.58
2024-05-09T12:51:04.073Z,1.15
2024-05-09T12:53:31.552Z,1.42
2024-05-09T12:56:02.355Z,1.30
2024-05-09T12:58:31.987Z,1.17
2024-05-09T13:00:59.548Z,1.00
2024-05-09T13:03:27.062Z,0.88
2024-05-09T13:05:54.885Z,1.20
2024-05-09T13:08:22.421Z,1.20
2024-05-09T13:10:50.542Z,0.93
2024-05-09T13:13:18.242Z,0.70
2024-05-09T13:15:45.804Z,0.80
2024-05-09T13:18:13.603Z,1.00
2024-05-09T13:20:41.025Z,0.80
2024-05-09T13:23:08.821Z,1.20
2024-05-09T13:25:37.909Z,0.80
2024-05-09T13:28:06.859Z,0.88
2024-05-09T13:30:40.411Z,0.90
2024-05-09T13:33:11.584Z,0.82
2024-05-09T13:35:45.649Z,0.93
2024-05-09T13:38:17.101Z,1.20
2024-05-09T13:40:45.030Z,1.02
2024-05-09T13:43:12.663Z,0.88
2024-05-09T13:45:40.232Z,1.02
2024-05-09T13:48:10.373Z,1.58
2024-05-09T13:50:39.564Z,0.82
2024-05-09T13:53:11.301Z,1.13
2024-05-09T13:55:39.810Z,1.15
2024-05-09T13:58:09.009Z,1.13
2024-05-09T14:00:45.937Z,1.00
2024-05-09T14:03:18.782Z,1.10
2024-05-09T14:05:48.242Z,1.08
2024-05-09T14:08:18.235Z,0.68
2024-05-09T14:10:49.731Z,1.20
2024-05-09T14:13:17.528Z,0.98
2024-05-09T14:15:46.823Z,1.10
2024-05-09T14:18:14.785Z,1.10
2024-05-09T14:20:43.273Z,1.55
2024-05-09T14:23:11.213Z,1.02
2024-05-09T14:25:42.466Z,1.50
2024-05-09T14:28:12.411Z,1.00
2024-05-09T14:30:40.878Z,1.13
2024-05-09T14:33:09.421Z,1.48
2024-05-09T14:35:38.707Z,1.00
2024-05-09T14:38:08.184Z,0.88
2024-05-09T14:40:42.023Z,1.00
2024-05-09T14:43:16.040Z,1.05
2024-05-09T14:45:44.671Z,0.98
2024-05-09T14:48:15.838Z,0.88
2024-05-09T14:50:44.108Z,0.88
2024-05-09T14:53:13.883Z,0.80
2024-05-09T14:55:43.321Z,0.98
2024-05-09T14:58:12.875Z,1.30
2024-05-09T15:00:46.519Z,1.38
2024-05-09T15:03:18.547Z,1.60
2024-05-09T15:05:47.206Z,1.38
2024-05-09T15:08:14.652Z,1.50
2024-05-09T15:10:42.087Z,1.17
2024-05-09T15:13:11.355Z,1.20
2024-05-09T15:15:40.672Z,1.63
2024-05-09T15:18:08.322Z,1.25
2024-05-09T15:20:37.338Z,1.67
2024-05-09T15:23:07.310Z,1.50
2024-05-09T15:25:36.483Z,1.75
2024-05-09T15:28:07.962Z,1.73
2024-05-09T15:30:36.709Z,1.20
2024-05-09T15:33:05.335Z,1.30
2024-05-09T15:35:34.043Z,1.30
2024-05-09T15:38:04.791Z,1.30
2024-05-09T15:40:39.077Z,1.33
2024-05-09T15:43:10.539Z,1.45
2024-05-09T15:45:39.669Z,1.27
2024-05-09T15:48:09.351Z,1.33
2024-05-09T15:50:40.787Z,1.38
2024-05-09T15:53:11.707Z,1.73
2024-05-09T15:55:40.081Z,1.40
2024-05-09T15:58:07.967Z,1.50
2024-05-09T16:00:39.965Z,1.50
2024-05-09T16:03:12.019Z,1.35
2024-05-09T16:05:41.536Z,1.50
2024-05-09T16:08:09.730Z,1.60
2024-05-09T16:10:43.524Z,1.17
2024-05-09T16:13:12.552Z,1.17
2024-05-09T16:15:40.532Z,1.27
2024-05-09T16:18:08.536Z,1.60
2024-05-09T16:20:40.193Z,1.30
2024-05-09T16:23:10.535Z,1.50
2024-05-09T16:25:38.189Z,1.40
2024-05-09T16:28:09.129Z,1.98
2024-05-09T16:30:39.411Z,1.80
2024-05-09T16:33:07.864Z,1.48
2024-05-09T16:35:36.116Z,1.50
2024-05-09T16:38:04.116Z,1.40
2024-05-09T16:40:38.069Z,1.58
2024-05-09T16:43:12.020Z,1.40
2024-05-09T16:45:41.141Z,1.85
2024-05-09T16:48:09.390Z,1.50
2024-05-09T16:50:37.059Z,1.45
2024-05-09T16:53:06.368Z,1.40
2024-05-09T16:55:35.091Z,1.90
2024-05-09T16:58:03.829Z,1.60
2024-05-09T17:00:39.741Z,1.45
2024-05-09T17:03:14.578Z,1.70
2024-05-09T17:05:43.600Z,1.02
2024-05-09T17:08:12.183Z,0.90
2024-05-09T17:10:39.726Z,1.65
2024-05-09T17:13:08.226Z,1.50
2024-05-09T17:15:37.649Z,1.15
2024-05-09T17:18:07.078Z,1.27
2024-05-09T17:20:37.023Z,1.00
2024-05-09T17:23:15.482Z,1.58
2024-05-09T17:25:43.701Z,1.20
2024-05-09T17:28:11.718Z,1.17
2024-05-09T17:30:43.027Z,1.33
2024-05-09T17:33:12.205Z,1.10
2024-05-09T17:35:40.721Z,1.30
2024-05-09T17:38:08.695Z,1.40
2024-05-09T17:40:38.094Z,1.05
2024-05-09T17:43:09.446Z,0.88
2024-05-09T17:45:39.775Z,0.90
2024-05-09T17:48:10.414Z,0.75
2024-05-09T17:50:39.402Z,0.90
2024-05-09T17:53:07.295Z,1.08
2024-05-09T17:55:35.519Z,1.00
2024-05-09T17:58:04.583Z,0.98
2024-05-09T18:00:38.236Z,0.80
2024-05-09T18:03:11.964Z,1.50
2024-05-09T18:05:40.809Z,1.33
2024-05-09T18:08:09.038Z,1.20
2024-05-09T18:10:39.250Z,1.10
2024-05-09T18:13:08.787Z,1.20
2024-05-09T18:15:36.826Z,1.20
2024-05-09T18:18:05.137Z,1.13
2024-05-09T18:20:41.692Z,1.08
2024-05-09T18:23:14.398Z,1.00
2024-05-09T18:25:43.146Z,1.10
2024-05-09T18:28:10.995Z,1.40
2024-05-09T18:30:41.147Z,1.30
2024-05-09T18:33:11.375Z,1.00
2024-05-09T18:35:41.764Z,1.35
2024-05-09T18:38:10.153Z,1.10
2024-05-09T18:40:38.831Z,1.30
2024-05-09T18:43:08.957Z,1.27
2024-05-09T18:45:38.400Z,1.05
2024-05-09T18:48:07.929Z,1.23
2024-05-09T18:50:39.324Z,1.20
2024-05-09T18:53:11.378Z,1.40
2024-05-09T18:55:40.239Z,1.23
2024-05-09T18:58:07.586Z,1.40
2024-05-09T19:00:38.642Z,1.60
2024-05-09T19:03:12.199Z,1.88
2024-05-09T19:05:43.745Z,2.13
2024-05-09T19:08:12.546Z,1.80
2024-05-09T19:10:40.432Z,2.25
2024-05-09T19:13:12.053Z,2.03
2024-05-09T19:15:41.973Z,2.10
2024-05-09T19:18:10.471Z,1.80
2024-05-09T19:20:38.430Z,1.77
2024-05-09T19:23:07.031Z,1.80
2024-05-09T19:25:35.497Z,1.90
2024-05-09T19:28:04.269Z,1.60
2024-05-09T19:30:38.723Z,2.33
2024-05-09T19:33:10.355Z,1.70
2024-05-09T19:35:38.916Z,1.70
2024-05-09T19:38:06.595Z,1.58
2024-05-09T19:40:35.161Z,1.60
2024-05-09T19:43:05.109Z,1.70
2024-05-09T19:45:34.940Z,1.70
2024-05-09T19:48:03.664Z,1.58
2024-05-09T19:50:37.789Z,1.60
2024-05-09T19:53:10.812Z,2.05
2024-05-09T19:55:38.584Z,1.75
2024-05-09T19:58:07.725Z,1.50
2024-05-09T20:00:41.783Z,1.80
2024-05-09T20:03:12.626Z,1.48
2024-05-09T20:05:41.985Z,1.80
2024-05-09T20:08:09.359Z,1.83
2024-05-09T20:10:37.124Z,2.30
2024-05-09T20:13:06.671Z,1.65
2024-05-09T20:15:37.086Z,1.65
2024-05-09T20:18:05.534Z,1.60
2024-05-09T20:20:39.012Z,1.60
2024-05-09T20:23:10.386Z,2.05
2024-05-09T20:25:37.947Z,1.70
2024-05-09T20:28:06.681Z,1.70
2024-05-09T20:30:35.929Z,2.13
2024-05-09T20:33:05.470Z,1.80
2024-05-09T20:35:34.693Z,2.50
2024-05-09T20:38:03.425Z,1.80
2024-05-09T20:40:35.649Z,2.00
2024-05-09T20:43:07.051Z,2.00
2024-05-09T20:45:35.054Z,2.10
2024-05-09T20:48:02.766Z,1.70
2024-05-09T20:50:37.424Z,2.13
2024-05-09T20:53:15.097Z,2.40
2024-05-09T20:55:45.937Z,2.20
2024-05-09T20:58:13.725Z,1.85
2024-05-09T21:00:44.471Z,1.70
2024-05-09T21:03:16.779Z,1.92
2024-05-09T21:05:45.274Z,2.35
2024-05-09T21:08:12.837Z,2.00
2024-05-09T21:10:40.189Z,2.53
2024-05-09T21:13:08.388Z,1.77
2024-05-09T21:15:36.445Z,2.10
2024-05-09T21:18:04.588Z,2.38
2024-05-09T21:20:34.966Z,1.98
2024-05-09T21:23:03.021Z,2.35
2024-05-09T21:25:30.972Z,2.00
2024-05-09T21:27:58.456Z,2.22
2024-05-09T21:30:32.835Z,1.80
2024-05-09T21:33:13.730Z,1.85
2024-05-09T21:35:45.508Z,2.07
2024-05-09T21:38:16.236Z,2.40
2024-05-09T21:40:44.449Z,2.15
2024-05-09T21:43:12.238Z,2.00
2024-05-09T21:45:39.570Z,2.72
2024-05-09T21:48:07.652Z,2.45
2024-05-09T21:50:40.387Z,2.17
2024-05-09T21:53:10.606Z,2.45
2024-05-09T21:55:38.160Z,2.88
2024-05-09T21:58:05.721Z,2.33
2024-05-09T22:00:37.707Z,2.75
2024-05-09T22:03:10.996Z,1.98
2024-05-09T22:05:42.479Z,2.38
2024-05-09T22:08:09.891Z,2.35
2024-05-09T22:10:37.508Z,2.10
2024-05-09T22:13:06.739Z,2.28
2024-05-09T22:15:39.757Z,2.20
2024-05-09T22:18:09.474Z,1.63
2024-05-09T22:20:44.876Z,1.85
2024-05-09T22:23:15.144Z,1.95
2024-05-09T22:25:43.179Z,1.55
2024-05-09T22:28:11.124Z,2.70
2024-05-09T22:30:39.968Z,3.38
2024-05-09T22:33:10.140Z,4.40
2024-05-09T22:35:39.547Z,3.95
2024-05-09T22:38:06.967Z,3.65
2024-05-09T22:40:44.965Z,3.30
2024-05-09T22:43:23.919Z,3.20
2024-05-09T22:45:54.861Z,2.58
2024-05-09T22:48:24.250Z,2.97
2024-05-09T22:50:52.244Z,2.92
2024-05-09T22:53:21.487Z,2.70
2024-05-09T22:55:48.704Z,2.58
2024-05-09T22:58:16.190Z,2.45
2024-05-09T23:00:43.810Z,2.33
2024-05-09T23:03:11.948Z,2.50
2024-05-09T23:05:39.406Z,2.67
2024-05-09T23:08:07.452Z,2.53
2024-05-09T23:10:37.726Z,1.92
2024-05-09T23:13:08.712Z,2.30
2024-05-09T23:15:38.803Z,1.95
2024-05-09T23:18:07.069Z,2.15
2024-05-09T23:20:38.488Z,2.33
2024-05-09T23:23:11.707Z,2.25
2024-05-09T23:25:43.227Z,2.00
2024-05-09T23:28:11.638Z,1.90
2024-05-09T23:30:41.141Z,1.90
2024-05-09T23:33:12.688Z,2.20
2024-05-09T23:35:42.176Z,2.10
2024-05-09T23:38:09.675Z,2.28
2024-05-09T23:40:39.983Z,2.10
2024-05-09T23:43:12.837Z,1.80
2024-05-09T23:45:41.450Z,1.73
2024-05-09T23:48:09.922Z,1.77
2024-05-09T23:50:39.148Z,2.10
2024-05-09T23:53:08.964Z,2.00
2024-05-09T23:55:38.012Z,2.30
2024-05-09T23:58:05.873Z,2.22
